sensor_id;sensor_type;location;lat;lon;timestamp;P1;durP1;ratioP1;P2;durP2;ratioP2
38457;SDS011;24239;48.058;10.486;2024-02-26T00:01:33;7.57;;;4.70;;
38457;SDS011;24239;48.058;10.486;2024-02-26T00:04:19;9.35;;;5.30;;
38457;SDS011;24239;48.058;10.486;2024-02-26T00:07:05;8.02;;;4.80;;
38457;SDS011;24239;48.058;10.486;2024-02-26T00:09:51;8.63;;;5.10;;
38457;SDS011;24239;48.058;10.486;2024-02-26T00:12:37;6.55;;;4.90;;
38457;SDS011;24239;48.058;10.486;2024-02-26T00:15:26;5.97;;;4.30;;
38457;SDS011;24239;48.058;10.486;2024-02-26T00:18:13;9.57;;;5.00;;
38457;SDS011;24239;48.058;10.486;2024-02-26T00:20:59;5.50;;;4.30;;
38457;SDS011;24239;48.058;10.486;2024-02-26T00:23:46;7.68;;;4.22;;
38457;SDS011;24239;48.058;10.486;2024-02-26T00:26:31;4.70;;;3.58;;
38457;SDS011;24239;48.058;10.486;2024-02-26T00:29:17;4.25;;;3.72;;
38457;SDS011;24239;48.058;10.486;2024-02-26T00:32:03;4.00;;;3.60;;
38457;SDS011;24239;48.058;10.486;2024-02-26T00:34:51;4.57;;;3.58;;
38457;SDS011;24239;48.058;10.486;2024-02-26T00:37:37;6.25;;;3.63;;
38457;SDS011;24239;48.058;10.486;2024-02-26T00:40:23;4.63;;;3.72;;
38457;SDS011;24239;48.058;10.486;2024-02-26T00:43:09;4.97;;;3.78;;
38457;SDS011;24239;48.058;10.486;2024-02-26T00:45:54;6.57;;;4.40;;
38457;SDS011;24239;48.058;10.486;2024-02-26T00:48:40;4.38;;;3.60;;
38457;SDS011;24239;48.058;10.486;2024-02-26T00:51:26;4.65;;;3.75;;
38457;SDS011;24239;48.058;10.486;2024-02-26T00:54:12;5.07;;;4.13;;
38457;SDS011;24239;48.058;10.486;2024-02-26T00:56:58;5.25;;;3.92;;
38457;SDS011;24239;48.058;10.486;2024-02-26T00:59:44;5.63;;;4.07;;
38457;SDS011;24239;48.058;10.486;2024-02-26T01:02:29;4.95;;;4.00;;
38457;SDS011;24239;48.058;10.486;2024-02-26T01:05:15;6.72;;;4.05;;
38457;SDS011;24239;48.058;10.486;2024-02-26T01:08:01;4.30;;;3.90;;
38457;SDS011;24239;48.058;10.486;2024-02-26T01:10:47;5.90;;;4.00;;
38457;SDS011;24239;48.058;10.486;2024-02-26T01:13:33;6.78;;;3.92;;
38457;SDS011;24239;48.058;10.486;2024-02-26T01:16:19;5.68;;;3.85;;
38457;SDS011;24239;48.058;10.486;2024-02-26T01:19:05;4.78;;;3.88;;
38457;SDS011;24239;48.058;10.486;2024-02-26T01:21:50;5.03;;;3.60;;
38457;SDS011;24239;48.058;10.486;2024-02-26T01:24:36;5.03;;;3.60;;
38457;SDS011;24239;48.058;10.486;2024-02-26T01:27:22;4.90;;;3.72;;
38457;SDS011;24239;48.058;10.486;2024-02-26T01:30:12;4.63;;;3.60;;
38457;SDS011;24239;48.058;10.486;2024-02-26T01:32:57;10.50;;;3.53;;
38457;SDS011;24239;48.058;10.486;2024-02-26T01:35:44;4.22;;;3.42;;
38457;SDS011;24239;48.058;10.486;2024-02-26T01:38:30;4.32;;;3.08;;
38457;SDS011;24239;48.058;10.486;2024-02-26T01:41:15;3.67;;;3.13;;
38457;SDS011;24239;48.058;10.486;2024-02-26T01:44:02;4.55;;;3.55;;
38457;SDS011;24239;48.058;10.486;2024-02-26T01:46:47;3.58;;;3.05;;
38457;SDS011;24239;48.058;10.486;2024-02-26T01:49:33;3.63;;;3.20;;
38457;SDS011;24239;48.058;10.486;2024-02-26T01:52:20;4.80;;;3.45;;
38457;SDS011;24239;48.058;10.486;2024-02-26T01:55:07;4.53;;;3.42;;
38457;SDS011;24239;48.058;10.486;2024-02-26T01:57:53;5.85;;;4.03;;
38457;SDS011;24239;48.058;10.486;2024-02-26T02:00:39;4.68;;;3.28;;
38457;SDS011;24239;48.058;10.486;2024-02-26T02:03:25;4.93;;;3.75;;
38457;SDS011;24239;48.058;10.486;2024-02-26T02:06:11;3.55;;;3.25;;
38457;SDS011;24239;48.058;10.486;2024-02-26T02:08:57;5.07;;;3.13;;
38457;SDS011;24239;48.058;10.486;2024-02-26T02:11:43;4.15;;;3.28;;
38457;SDS011;24239;48.058;10.486;2024-02-26T02:14:29;4.72;;;3.20;;
38457;SDS011;24239;48.058;10.486;2024-02-26T02:17:15;3.45;;;3.05;;
38457;SDS011;24239;48.058;10.486;2024-02-26T02:20:01;4.50;;;3.10;;
38457;SDS011;24239;48.058;10.486;2024-02-26T02:22:47;4.20;;;3.03;;
38457;SDS011;24239;48.058;10.486;2024-02-26T02:25:33;4.82;;;3.08;;
38457;SDS011;24239;48.058;10.486;2024-02-26T02:28:19;3.30;;;3.00;;
38457;SDS011;24239;48.058;10.486;2024-02-26T02:31:05;3.60;;;3.15;;
38457;SDS011;24239;48.058;10.486;2024-02-26T02:33:51;3.83;;;3.15;;
38457;SDS011;24239;48.058;10.486;2024-02-26T02:36:48;4.22;;;3.17;;
38457;SDS011;24239;48.058;10.486;2024-02-26T02:39:43;4.00;;;3.25;;
38457;SDS011;24239;48.058;10.486;2024-02-26T02:42:29;5.75;;;3.70;;
38457;SDS011;24239;48.058;10.486;2024-02-26T02:45:15;6.22;;;3.20;;
38457;SDS011;24239;48.058;10.486;2024-02-26T02:48:01;5.20;;;3.42;;
38457;SDS011;24239;48.058;10.486;2024-02-26T02:50:47;3.88;;;3.00;;
38457;SDS011;24239;48.058;10.486;2024-02-26T02:53:32;3.45;;;3.08;;
38457;SDS011;24239;48.058;10.486;2024-02-26T02:56:18;3.40;;;3.10;;
38457;SDS011;24239;48.058;10.486;2024-02-26T02:59:04;3.97;;;2.90;;
38457;SDS011;24239;48.058;10.486;2024-02-26T03:01:50;4.22;;;3.30;;
38457;SDS011;24239;48.058;10.486;2024-02-26T03:04:35;4.05;;;3.25;;
38457;SDS011;24239;48.058;10.486;2024-02-26T03:07:21;5.60;;;3.22;;
38457;SDS011;24239;48.058;10.486;2024-02-26T03:10:07;4.40;;;3.30;;
38457;SDS011;24239;48.058;10.486;2024-02-26T03:12:53;6.20;;;3.47;;
38457;SDS011;24239;48.058;10.486;2024-02-26T03:15:39;4.90;;;3.15;;
38457;SDS011;24239;48.058;10.486;2024-02-26T03:18:25;3.53;;;2.90;;
38457;SDS011;24239;48.058;10.486;2024-02-26T03:21:10;3.35;;;2.95;;
38457;SDS011;24239;48.058;10.486;2024-02-26T03:23:56;4.13;;;2.80;;
38457;SDS011;24239;48.058;10.486;2024-02-26T03:26:44;4.68;;;3.15;;
38457;SDS011;24239;48.058;10.486;2024-02-26T03:29:30;4.03;;;2.88;;
38457;SDS011;24239;48.058;10.486;2024-02-26T03:32:16;4.20;;;2.80;;
38457;SDS011;24239;48.058;10.486;2024-02-26T03:35:01;6.03;;;3.08;;
38457;SDS011;24239;48.058;10.486;2024-02-26T03:37:47;3.65;;;3.05;;
38457;SDS011;24239;48.058;10.486;2024-02-26T03:40:35;4.47;;;3.03;;
38457;SDS011;24239;48.058;10.486;2024-02-26T03:43:23;3.80;;;2.70;;
38457;SDS011;24239;48.058;10.486;2024-02-26T03:46:09;3.47;;;2.80;;
38457;SDS011;24239;48.058;10.486;2024-02-26T03:48:56;2.97;;;2.67;;
38457;SDS011;24239;48.058;10.486;2024-02-26T03:51:42;4.75;;;2.85;;
38457;SDS011;24239;48.058;10.486;2024-02-26T03:54:28;4.95;;;3.42;;
38457;SDS011;24239;48.058;10.486;2024-02-26T03:57:13;3.40;;;2.63;;
38457;SDS011;24239;48.058;10.486;2024-02-26T03:59:59;3.08;;;2.78;;
38457;SDS011;24239;48.058;10.486;2024-02-26T04:02:46;4.07;;;2.75;;
38457;SDS011;24239;48.058;10.486;2024-02-26T04:05:32;3.22;;;2.70;;
38457;SDS011;24239;48.058;10.486;2024-02-26T04:08:18;5.03;;;2.72;;
38457;SDS011;24239;48.058;10.486;2024-02-26T04:11:03;4.70;;;3.58;;
38457;SDS011;24239;48.058;10.486;2024-02-26T04:13:52;5.10;;;3.35;;
38457;SDS011;24239;48.058;10.486;2024-02-26T04:16:38;4.93;;;3.75;;
38457;SDS011;24239;48.058;10.486;2024-02-26T04:19:24;4.55;;;3.65;;
38457;SDS011;24239;48.058;10.486;2024-02-26T04:22:10;4.25;;;3.85;;
38457;SDS011;24239;48.058;10.486;2024-02-26T04:24:56;3.97;;;3.17;;
38457;SDS011;24239;48.058;10.486;2024-02-26T04:27:41;4.78;;;3.40;;
38457;SDS011;24239;48.058;10.486;2024-02-26T04:30:27;5.30;;;3.30;;
38457;SDS011;24239;48.058;10.486;2024-02-26T04:33:13;4.38;;;3.13;;
38457;SDS011;24239;48.058;10.486;2024-02-26T04:35:59;4.07;;;3.40;;
38457;SDS011;24239;48.058;10.486;2024-02-26T04:38:44;4.03;;;3.20;;
38457;SDS011;24239;48.058;10.486;2024-02-26T04:41:30;4.28;;;3.17;;
38457;SDS011;24239;48.058;10.486;2024-02-26T04:44:16;2.92;;;2.70;;
38457;SDS011;24239;48.058;10.486;2024-02-26T04:47:01;4.22;;;3.22;;
38457;SDS011;24239;48.058;10.486;2024-02-26T04:49:48;4.55;;;3.10;;
38457;SDS011;24239;48.058;10.486;2024-02-26T04:52:35;4.47;;;3.13;;
38457;SDS011;24239;48.058;10.486;2024-02-26T04:55:21;6.55;;;3.30;;
38457;SDS011;24239;48.058;10.486;2024-02-26T04:58:07;4.10;;;3.40;;
38457;SDS011;24239;48.058;10.486;2024-02-26T05:00:53;9.80;;;5.95;;
38457;SDS011;24239;48.058;10.486;2024-02-26T05:03:38;6.95;;;5.07;;
38457;SDS011;24239;48.058;10.486;2024-02-26T05:06:24;4.20;;;3.47;;
38457;SDS011;24239;48.058;10.486;2024-02-26T05:09:10;3.90;;;3.33;;
38457;SDS011;24239;48.058;10.486;2024-02-26T05:11:56;5.30;;;3.38;;
38457;SDS011;24239;48.058;10.486;2024-02-26T05:14:41;4.40;;;3.50;;
38457;SDS011;24239;48.058;10.486;2024-02-26T05:17:28;7.53;;;4.68;;
38457;SDS011;24239;48.058;10.486;2024-02-26T05:20:13;5.15;;;4.07;;
38457;SDS011;24239;48.058;10.486;2024-02-26T05:22:59;8.35;;;5.32;;
38457;SDS011;24239;48.058;10.486;2024-02-26T05:25:45;4.68;;;3.72;;
38457;SDS011;24239;48.058;10.486;2024-02-26T05:28:33;5.93;;;3.65;;
38457;SDS011;24239;48.058;10.486;2024-02-26T05:31:18;3.33;;;3.03;;
38457;SDS011;24239;48.058;10.486;2024-02-26T05:34:04;6.95;;;3.63;;
38457;SDS011;24239;48.058;10.486;2024-02-26T05:36:50;7.57;;;3.70;;
38457;SDS011;24239;48.058;10.486;2024-02-26T05:39:36;4.75;;;3.40;;
38457;SDS011;24239;48.058;10.486;2024-02-26T05:42:21;4.65;;;2.88;;
38457;SDS011;24239;48.058;10.486;2024-02-26T05:45:07;3.70;;;3.35;;
38457;SDS011;24239;48.058;10.486;2024-02-26T05:47:53;4.82;;;3.78;;
38457;SDS011;24239;48.058;10.486;2024-02-26T05:50:39;6.32;;;3.78;;
38457;SDS011;24239;48.058;10.486;2024-02-26T05:53:24;3.65;;;3.30;;
38457;SDS011;24239;48.058;10.486;2024-02-26T05:56:10;4.95;;;3.50;;
38457;SDS011;24239;48.058;10.486;2024-02-26T05:58:56;6.30;;;3.40;;
38457;SDS011;24239;48.058;10.486;2024-02-26T06:01:42;4.47;;;3.22;;
38457;SDS011;24239;48.058;10.486;2024-02-26T06:04:27;8.73;;;3.50;;
38457;SDS011;24239;48.058;10.486;2024-02-26T06:07:13;5.75;;;3.92;;
38457;SDS011;24239;48.058;10.486;2024-02-26T06:09:59;19.30;;;7.15;;
38457;SDS011;24239;48.058;10.486;2024-02-26T06:12:45;12.60;;;7.72;;
38457;SDS011;24239;48.058;10.486;2024-02-26T06:15:30;13.80;;;6.82;;
38457;SDS011;24239;48.058;10.486;2024-02-26T06:18:16;9.25;;;4.75;;
38457;SDS011;24239;48.058;10.486;2024-02-26T06:21:02;9.43;;;5.57;;
38457;SDS011;24239;48.058;10.486;2024-02-26T06:23:48;9.30;;;5.55;;
38457;SDS011;24239;48.058;10.486;2024-02-26T06:26:34;10.27;;;4.90;;
38457;SDS011;24239;48.058;10.486;2024-02-26T06:29:20;7.93;;;4.35;;
38457;SDS011;24239;48.058;10.486;2024-02-26T06:32:06;7.07;;;4.28;;
38457;SDS011;24239;48.058;10.486;2024-02-26T06:34:51;10.48;;;7.05;;
38457;SDS011;24239;48.058;10.486;2024-02-26T06:37:37;8.23;;;5.55;;
38457;SDS011;24239;48.058;10.486;2024-02-26T06:40:23;7.88;;;5.20;;
38457;SDS011;24239;48.058;10.486;2024-02-26T06:43:09;8.48;;;5.00;;
38457;SDS011;24239;48.058;10.486;2024-02-26T06:45:54;33.53;;;16.65;;
38457;SDS011;24239;48.058;10.486;2024-02-26T06:48:40;15.27;;;7.93;;
38457;SDS011;24239;48.058;10.486;2024-02-26T06:51:26;12.73;;;7.13;;
38457;SDS011;24239;48.058;10.486;2024-02-26T06:54:11;12.07;;;5.85;;
38457;SDS011;24239;48.058;10.486;2024-02-26T06:56:57;12.98;;;6.68;;
38457;SDS011;24239;48.058;10.486;2024-02-26T06:59:43;10.93;;;5.68;;
38457;SDS011;24239;48.058;10.486;2024-02-26T07:02:32;9.63;;;5.60;;
38457;SDS011;24239;48.058;10.486;2024-02-26T07:05:18;8.35;;;4.40;;
38457;SDS011;24239;48.058;10.486;2024-02-26T07:08:03;9.88;;;5.05;;
38457;SDS011;24239;48.058;10.486;2024-02-26T07:10:49;6.57;;;3.70;;
38457;SDS011;24239;48.058;10.486;2024-02-26T07:13:35;4.50;;;3.03;;
38457;SDS011;24239;48.058;10.486;2024-02-26T07:16:21;5.53;;;2.38;;
38457;SDS011;24239;48.058;10.486;2024-02-26T07:19:06;2.92;;;2.50;;
38457;SDS011;24239;48.058;10.486;2024-02-26T07:21:52;5.57;;;2.70;;
38457;SDS011;24239;48.058;10.486;2024-02-26T07:24:38;8.13;;;2.95;;
38457;SDS011;24239;48.058;10.486;2024-02-26T07:27:24;5.60;;;3.13;;
38457;SDS011;24239;48.058;10.486;2024-02-26T07:30:10;5.70;;;3.40;;
38457;SDS011;24239;48.058;10.486;2024-02-26T07:32:56;5.20;;;4.03;;
38457;SDS011;24239;48.058;10.486;2024-02-26T07:35:42;6.82;;;3.83;;
38457;SDS011;24239;48.058;10.486;2024-02-26T07:38:27;7.70;;;4.07;;
38457;SDS011;24239;48.058;10.486;2024-02-26T07:41:13;5.05;;;3.33;;
38457;SDS011;24239;48.058;10.486;2024-02-26T07:43:59;14.18;;;6.85;;
38457;SDS011;24239;48.058;10.486;2024-02-26T07:46:45;8.93;;;4.88;;
38457;SDS011;24239;48.058;10.486;2024-02-26T07:49:31;5.95;;;3.40;;
38457;SDS011;24239;48.058;10.486;2024-02-26T07:52:16;5.18;;;3.20;;
38457;SDS011;24239;48.058;10.486;2024-02-26T07:55:02;5.07;;;3.60;;
38457;SDS011;24239;48.058;10.486;2024-02-26T07:57:48;6.28;;;3.00;;
38457;SDS011;24239;48.058;10.486;2024-02-26T08:00:34;5.13;;;2.65;;
38457;SDS011;24239;48.058;10.486;2024-02-26T08:03:20;2.67;;;2.45;;
38457;SDS011;24239;48.058;10.486;2024-02-26T08:06:07;3.67;;;2.30;;
38457;SDS011;24239;48.058;10.486;2024-02-26T08:08:53;2.45;;;2.20;;
38457;SDS011;24239;48.058;10.486;2024-02-26T08:11:39;3.45;;;2.00;;
38457;SDS011;24239;48.058;10.486;2024-02-26T08:14:25;2.75;;;1.98;;
38457;SDS011;24239;48.058;10.486;2024-02-26T08:17:10;2.75;;;1.77;;
38457;SDS011;24239;48.058;10.486;2024-02-26T08:19:56;3.58;;;2.30;;
38457;SDS011;24239;48.058;10.486;2024-02-26T08:22:45;2.88;;;2.17;;
38457;SDS011;24239;48.058;10.486;2024-02-26T08:25:31;3.72;;;2.75;;
38457;SDS011;24239;48.058;10.486;2024-02-26T08:28:16;2.22;;;1.77;;
38457;SDS011;24239;48.058;10.486;2024-02-26T08:31:03;2.00;;;1.60;;
38457;SDS011;24239;48.058;10.486;2024-02-26T08:33:49;3.08;;;2.35;;
38457;SDS011;24239;48.058;10.486;2024-02-26T08:36:35;2.83;;;2.22;;
38457;SDS011;24239;48.058;10.486;2024-02-26T08:39:20;2.55;;;2.00;;
38457;SDS011;24239;48.058;10.486;2024-02-26T08:42:06;2.28;;;1.75;;
38457;SDS011;24239;48.058;10.486;2024-02-26T08:44:52;4.03;;;1.88;;
38457;SDS011;24239;48.058;10.486;2024-02-26T08:47:40;3.70;;;1.92;;
38457;SDS011;24239;48.058;10.486;2024-02-26T08:50:25;3.53;;;2.00;;
38457;SDS011;24239;48.058;10.486;2024-02-26T08:53:12;3.20;;;2.00;;
38457;SDS011;24239;48.058;10.486;2024-02-26T08:55:57;3.58;;;2.60;;
38457;SDS011;24239;48.058;10.486;2024-02-26T08:58:43;2.65;;;2.42;;
38457;SDS011;24239;48.058;10.486;2024-02-26T09:01:30;3.75;;;2.75;;
38457;SDS011;24239;48.058;10.486;2024-02-26T09:04:16;3.53;;;2.03;;
38457;SDS011;24239;48.058;10.486;2024-02-26T09:07:02;2.75;;;2.20;;
38457;SDS011;24239;48.058;10.486;2024-02-26T09:09:48;3.85;;;2.30;;
38457;SDS011;24239;48.058;10.486;2024-02-26T09:12:36;2.88;;;2.10;;
38457;SDS011;24239;48.058;10.486;2024-02-26T09:15:23;3.40;;;1.90;;
38457;SDS011;24239;48.058;10.486;2024-02-26T09:18:08;2.53;;;1.98;;
38457;SDS011;24239;48.058;10.486;2024-02-26T09:20:54;9.88;;;2.03;;
38457;SDS011;24239;48.058;10.486;2024-02-26T09:23:40;2.90;;;2.05;;
38457;SDS011;24239;48.058;10.486;2024-02-26T09:26:25;4.38;;;2.13;;
38457;SDS011;24239;48.058;10.486;2024-02-26T09:29:11;3.60;;;2.10;;
38457;SDS011;24239;48.058;10.486;2024-02-26T09:31:57;4.57;;;2.40;;
38457;SDS011;24239;48.058;10.486;2024-02-26T09:34:43;2.78;;;2.35;;
38457;SDS011;24239;48.058;10.486;2024-02-26T09:37:28;3.30;;;2.30;;
38457;SDS011;24239;48.058;10.486;2024-02-26T09:40:14;3.00;;;2.22;;
38457;SDS011;24239;48.058;10.486;2024-02-26T09:43:00;2.88;;;2.50;;
38457;SDS011;24239;48.058;10.486;2024-02-26T09:45:49;4.93;;;2.70;;
38457;SDS011;24239;48.058;10.486;2024-02-26T09:48:37;5.45;;;3.20;;
38457;SDS011;24239;48.058;10.486;2024-02-26T09:51:23;3.55;;;2.80;;
38457;SDS011;24239;48.058;10.486;2024-02-26T09:54:11;4.57;;;3.17;;
38457;SDS011;24239;48.058;10.486;2024-02-26T09:57:02;8.98;;;3.20;;
38457;SDS011;24239;48.058;10.486;2024-02-26T09:59:53;3.05;;;2.22;;
38457;SDS011;24239;48.058;10.486;2024-02-26T10:02:39;3.90;;;2.50;;
38457;SDS011;24239;48.058;10.486;2024-02-26T10:05:25;3.58;;;2.40;;
38457;SDS011;24239;48.058;10.486;2024-02-26T10:08:12;4.50;;;2.05;;
38457;SDS011;24239;48.058;10.486;2024-02-26T10:10:58;2.45;;;2.25;;
38457;SDS011;24239;48.058;10.486;2024-02-26T10:13:44;4.43;;;2.75;;
38457;SDS011;24239;48.058;10.486;2024-02-26T10:16:29;3.25;;;2.75;;
38457;SDS011;24239;48.058;10.486;2024-02-26T10:19:24;4.68;;;2.33;;
38457;SDS011;24239;48.058;10.486;2024-02-26T10:22:14;4.55;;;3.28;;
38457;SDS011;24239;48.058;10.486;2024-02-26T10:25:00;5.82;;;3.58;;
38457;SDS011;24239;48.058;10.486;2024-02-26T10:27:46;4.75;;;3.60;;
38457;SDS011;24239;48.058;10.486;2024-02-26T10:30:36;4.32;;;3.15;;
38457;SDS011;24239;48.058;10.486;2024-02-26T10:33:22;8.23;;;3.40;;
38457;SDS011;24239;48.058;10.486;2024-02-26T10:36:07;5.80;;;3.22;;
38457;SDS011;24239;48.058;10.486;2024-02-26T10:38:54;6.13;;;3.33;;
38457;SDS011;24239;48.058;10.486;2024-02-26T10:41:43;3.97;;;2.78;;
38457;SDS011;24239;48.058;10.486;2024-02-26T10:44:30;4.55;;;3.08;;
38457;SDS011;24239;48.058;10.486;2024-02-26T10:47:16;6.97;;;4.93;;
38457;SDS011;24239;48.058;10.486;2024-02-26T10:50:02;5.25;;;4.28;;
38457;SDS011;24239;48.058;10.486;2024-02-26T10:52:49;7.40;;;4.28;;
38457;SDS011;24239;48.058;10.486;2024-02-26T10:55:35;4.13;;;3.10;;
38457;SDS011;24239;48.058;10.486;2024-02-26T10:58:22;4.18;;;3.28;;
38457;SDS011;24239;48.058;10.486;2024-02-26T11:01:10;9.02;;;3.33;;
38457;SDS011;24239;48.058;10.486;2024-02-26T11:03:56;7.57;;;3.10;;
38457;SDS011;24239;48.058;10.486;2024-02-26T11:06:44;4.38;;;3.20;;
38457;SDS011;24239;48.058;10.486;2024-02-26T11:09:30;3.35;;;2.78;;
38457;SDS011;24239;48.058;10.486;2024-02-26T11:12:16;4.60;;;3.10;;
38457;SDS011;24239;48.058;10.486;2024-02-26T11:15:02;5.53;;;3.03;;
38457;SDS011;24239;48.058;10.486;2024-02-26T11:17:48;7.32;;;4.70;;
38457;SDS011;24239;48.058;10.486;2024-02-26T11:20:34;5.28;;;3.15;;
38457;SDS011;24239;48.058;10.486;2024-02-26T11:23:24;3.70;;;3.03;;
38457;SDS011;24239;48.058;10.486;2024-02-26T11:26:09;4.32;;;3.30;;
38457;SDS011;24239;48.058;10.486;2024-02-26T11:28:56;9.15;;;3.40;;
38457;SDS011;24239;48.058;10.486;2024-02-26T11:31:41;3.33;;;3.03;;
38457;SDS011;24239;48.058;10.486;2024-02-26T11:34:27;4.60;;;2.90;;
38457;SDS011;24239;48.058;10.486;2024-02-26T11:37:14;3.47;;;3.08;;
38457;SDS011;24239;48.058;10.486;2024-02-26T11:40:01;5.55;;;3.40;;
38457;SDS011;24239;48.058;10.486;2024-02-26T11:42:47;5.22;;;3.35;;
38457;SDS011;24239;48.058;10.486;2024-02-26T11:48:25;5.05;;;3.00;;
38457;SDS011;24239;48.058;10.486;2024-02-26T11:51:11;5.47;;;2.80;;
38457;SDS011;24239;48.058;10.486;2024-02-26T11:53:58;4.68;;;3.35;;
38457;SDS011;24239;48.058;10.486;2024-02-26T11:56:44;7.57;;;3.95;;
38457;SDS011;24239;48.058;10.486;2024-02-26T11:59:37;5.53;;;3.53;;
38457;SDS011;24239;48.058;10.486;2024-02-26T12:05:30;6.30;;;3.38;;
38457;SDS011;24239;48.058;10.486;2024-02-26T12:08:17;3.80;;;2.80;;
38457;SDS011;24239;48.058;10.486;2024-02-26T12:11:14;4.50;;;3.10;;
38457;SDS011;24239;48.058;10.486;2024-02-26T12:14:00;3.30;;;2.65;;
38457;SDS011;24239;48.058;10.486;2024-02-26T12:16:46;3.40;;;2.60;;
38457;SDS011;24239;48.058;10.486;2024-02-26T12:19:35;3.25;;;2.83;;
38457;SDS011;24239;48.058;10.486;2024-02-26T12:22:24;2.03;;;1.60;;
38457;SDS011;24239;48.058;10.486;2024-02-26T12:25:10;1.15;;;1.05;;
38457;SDS011;24239;48.058;10.486;2024-02-26T12:27:56;1.25;;;1.10;;
38457;SDS011;24239;48.058;10.486;2024-02-26T12:30:42;1.98;;;1.33;;
38457;SDS011;24239;48.058;10.486;2024-02-26T12:33:29;1.95;;;1.20;;
38457;SDS011;24239;48.058;10.486;2024-02-26T12:36:16;1.58;;;1.35;;
38457;SDS011;24239;48.058;10.486;2024-02-26T12:39:02;1.52;;;1.40;;
38457;SDS011;24239;48.058;10.486;2024-02-26T12:41:51;2.22;;;1.95;;
38457;SDS011;24239;48.058;10.486;2024-02-26T12:44:37;3.67;;;2.33;;
38457;SDS011;24239;48.058;10.486;2024-02-26T12:47:23;3.90;;;2.95;;
38457;SDS011;24239;48.058;10.486;2024-02-26T12:50:09;4.78;;;3.70;;
38457;SDS011;24239;48.058;10.486;2024-02-26T12:52:55;5.05;;;4.55;;
38457;SDS011;24239;48.058;10.486;2024-02-26T12:55:41;4.57;;;3.15;;
38457;SDS011;24239;48.058;10.486;2024-02-26T12:58:30;4.45;;;3.50;;
38457;SDS011;24239;48.058;10.486;2024-02-26T13:01:16;3.67;;;3.15;;
38457;SDS011;24239;48.058;10.486;2024-02-26T13:04:03;4.15;;;3.13;;
38457;SDS011;24239;48.058;10.486;2024-02-26T13:06:51;5.93;;;3.65;;
38457;SDS011;24239;48.058;10.486;2024-02-26T13:09:37;4.65;;;3.10;;
38457;SDS011;24239;48.058;10.486;2024-02-26T13:12:23;3.75;;;2.97;;
38457;SDS011;24239;48.058;10.486;2024-02-26T13:15:09;5.07;;;3.65;;
38457;SDS011;24239;48.058;10.486;2024-02-26T13:18:08;4.53;;;3.90;;
38457;SDS011;24239;48.058;10.486;2024-02-26T13:21:10;10.90;;;5.88;;
38457;SDS011;24239;48.058;10.486;2024-02-26T13:23:57;8.18;;;5.32;;
38457;SDS011;24239;48.058;10.486;2024-02-26T13:26:44;7.32;;;4.28;;
38457;SDS011;24239;48.058;10.486;2024-02-26T13:29:29;5.57;;;4.57;;
38457;SDS011;24239;48.058;10.486;2024-02-26T13:32:15;10.27;;;3.92;;
38457;SDS011;24239;48.058;10.486;2024-02-26T13:35:05;4.35;;;3.30;;
38457;SDS011;24239;48.058;10.486;2024-02-26T13:37:54;4.50;;;3.05;;
38457;SDS011;24239;48.058;10.486;2024-02-26T13:40:40;12.57;;;7.53;;
38457;SDS011;24239;48.058;10.486;2024-02-26T13:43:26;7.03;;;4.00;;
38457;SDS011;24239;48.058;10.486;2024-02-26T13:46:11;7.63;;;4.63;;
38457;SDS011;24239;48.058;10.486;2024-02-26T13:48:59;5.80;;;4.07;;
38457;SDS011;24239;48.058;10.486;2024-02-26T13:51:45;5.22;;;3.65;;
38457;SDS011;24239;48.058;10.486;2024-02-26T13:54:30;10.00;;;3.85;;
38457;SDS011;24239;48.058;10.486;2024-02-26T13:57:16;5.13;;;3.47;;
38457;SDS011;24239;48.058;10.486;2024-02-26T14:00:03;6.43;;;3.40;;
38457;SDS011;24239;48.058;10.486;2024-02-26T14:02:49;6.13;;;4.22;;
38457;SDS011;24239;48.058;10.486;2024-02-26T14:05:35;6.30;;;3.97;;
38457;SDS011;24239;48.058;10.486;2024-02-26T14:08:20;6.82;;;4.53;;
38457;SDS011;24239;48.058;10.486;2024-02-26T14:11:06;7.78;;;4.72;;
38457;SDS011;24239;48.058;10.486;2024-02-26T14:13:52;6.93;;;4.88;;
38457;SDS011;24239;48.058;10.486;2024-02-26T14:16:38;6.00;;;4.22;;
38457;SDS011;24239;48.058;10.486;2024-02-26T14:19:23;7.57;;;4.68;;
38457;SDS011;24239;48.058;10.486;2024-02-26T14:22:12;12.40;;;5.32;;
38457;SDS011;24239;48.058;10.486;2024-02-26T14:24:57;7.78;;;5.40;;
38457;SDS011;24239;48.058;10.486;2024-02-26T14:27:44;9.13;;;5.47;;
38457;SDS011;24239;48.058;10.486;2024-02-26T14:30:30;12.18;;;5.20;;
38457;SDS011;24239;48.058;10.486;2024-02-26T14:33:15;7.85;;;4.88;;
38457;SDS011;24239;48.058;10.486;2024-02-26T14:36:01;8.75;;;4.97;;
38457;SDS011;24239;48.058;10.486;2024-02-26T14:38:47;6.28;;;5.32;;
38457;SDS011;24239;48.058;10.486;2024-02-26T14:41:33;6.88;;;5.10;;
38457;SDS011;24239;48.058;10.486;2024-02-26T14:44:21;6.35;;;5.45;;
38457;SDS011;24239;48.058;10.486;2024-02-26T14:47:07;7.82;;;5.60;;
38457;SDS011;24239;48.058;10.486;2024-02-26T14:49:53;9.57;;;5.15;;
38457;SDS011;24239;48.058;10.486;2024-02-26T14:52:39;11.02;;;5.47;;
38457;SDS011;24239;48.058;10.486;2024-02-26T14:55:24;6.88;;;4.90;;
38457;SDS011;24239;48.058;10.486;2024-02-26T14:58:10;10.90;;;5.55;;
38457;SDS011;24239;48.058;10.486;2024-02-26T15:00:57;7.60;;;4.95;;
38457;SDS011;24239;48.058;10.486;2024-02-26T15:03:42;7.47;;;5.20;;
38457;SDS011;24239;48.058;10.486;2024-02-26T15:06:29;11.35;;;6.43;;
38457;SDS011;24239;48.058;10.486;2024-02-26T15:09:14;10.18;;;6.38;;
38457;SDS011;24239;48.058;10.486;2024-02-26T15:12:00;11.85;;;5.47;;
38457;SDS011;24239;48.058;10.486;2024-02-26T15:14:49;8.77;;;4.90;;
38457;SDS011;24239;48.058;10.486;2024-02-26T15:17:35;7.75;;;4.40;;
38457;SDS011;24239;48.058;10.486;2024-02-26T15:20:21;7.07;;;4.07;;
38457;SDS011;24239;48.058;10.486;2024-02-26T15:23:07;4.43;;;3.53;;
38457;SDS011;24239;48.058;10.486;2024-02-26T15:25:53;4.95;;;3.70;;
38457;SDS011;24239;48.058;10.486;2024-02-26T15:28:39;8.60;;;4.53;;
38457;SDS011;24239;48.058;10.486;2024-02-26T15:31:25;9.30;;;4.40;;
38457;SDS011;24239;48.058;10.486;2024-02-26T15:34:11;5.85;;;4.13;;
38457;SDS011;24239;48.058;10.486;2024-02-26T15:36:57;5.03;;;3.40;;
38457;SDS011;24239;48.058;10.486;2024-02-26T15:39:43;4.70;;;3.67;;
38457;SDS011;24239;48.058;10.486;2024-02-26T15:42:30;7.15;;;3.33;;
38457;SDS011;24239;48.058;10.486;2024-02-26T15:45:16;6.68;;;4.07;;
38457;SDS011;24239;48.058;10.486;2024-02-26T15:48:02;4.82;;;2.97;;
38457;SDS011;24239;48.058;10.486;2024-02-26T15:50:47;2.95;;;2.40;;
38457;SDS011;24239;48.058;10.486;2024-02-26T15:53:33;6.82;;;3.30;;
38457;SDS011;24239;48.058;10.486;2024-02-26T15:56:19;3.70;;;2.25;;
38457;SDS011;24239;48.058;10.486;2024-02-26T15:59:08;2.38;;;2.17;;
38457;SDS011;24239;48.058;10.486;2024-02-26T16:01:54;3.33;;;2.65;;
38457;SDS011;24239;48.058;10.486;2024-02-26T16:04:42;2.55;;;1.90;;
38457;SDS011;24239;48.058;10.486;2024-02-26T16:07:37;3.55;;;2.78;;
38457;SDS011;24239;48.058;10.486;2024-02-26T16:10:35;2.55;;;1.92;;
38457;SDS011;24239;48.058;10.486;2024-02-26T16:13:21;2.60;;;2.15;;
38457;SDS011;24239;48.058;10.486;2024-02-26T16:16:13;2.88;;;2.40;;
38457;SDS011;24239;48.058;10.486;2024-02-26T16:19:05;3.13;;;2.60;;
38457;SDS011;24239;48.058;10.486;2024-02-26T16:21:53;5.05;;;3.25;;
38457;SDS011;24239;48.058;10.486;2024-02-26T16:24:39;7.78;;;3.67;;
38457;SDS011;24239;48.058;10.486;2024-02-26T16:27:25;3.80;;;2.95;;
38457;SDS011;24239;48.058;10.486;2024-02-26T16:30:11;3.15;;;2.67;;
38457;SDS011;24239;48.058;10.486;2024-02-26T16:32:57;4.63;;;3.00;;